sensor_id;sensor_type;location;lat;lon;timestamp;P1;durP1;ratioP1;P2;durP2;ratioP2
48361;SDS011;34510;51.888;5.670;2023-03-01T00:04:52;678.00;;;170.47;;
48361;SDS011;34510;51.888;5.670;2023-03-01T00:09:54;683.93;;;157.97;;
48361;SDS011;34510;51.888;5.670;2023-03-01T00:14:56;682.63;;;184.67;;
48361;SDS011;34510;51.888;5.670;2023-03-01T00:19:58;679.53;;;180.63;;
48361;SDS011;34510;51.888;5.670;2023-03-01T00:25:00;637.43;;;148.27;;
48361;SDS011;34510;51.888;5.670;2023-03-01T00:30:02;680.97;;;184.73;;
48361;SDS011;34510;51.888;5.670;2023-03-01T00:35:04;691.03;;;214.30;;
48361;SDS011;34510;51.888;5.670;2023-03-01T00:40:08;690.40;;;207.77;;
48361;SDS011;34510;51.888;5.670;2023-03-01T00:45:11;694.87;;;216.03;;
48361;SDS011;34510;51.888;5.670;2023-03-01T00:50:14;693.80;;;194.60;;
48361;SDS011;34510;51.888;5.670;2023-03-01T00:55:16;626.33;;;143.87;;
48361;SDS011;34510;51.888;5.670;2023-03-01T01:00:19;601.63;;;144.07;;
48361;SDS011;34510;51.888;5.670;2023-03-01T01:05:22;627.17;;;146.03;;
48361;SDS011;34510;51.888;5.670;2023-03-01T01:10:24;651.50;;;157.07;;
48361;SDS011;34510;51.888;5.670;2023-03-01T01:15:26;610.40;;;154.40;;
48361;SDS011;34510;51.888;5.670;2023-03-01T01:20:28;614.87;;;166.87;;
48361;SDS011;34510;51.888;5.670;2023-03-01T01:25:30;533.93;;;150.10;;
48361;SDS011;34510;51.888;5.670;2023-03-01T01:30:35;539.57;;;142.07;;
48361;SDS011;34510;51.888;5.670;2023-03-01T01:35:37;526.77;;;139.97;;
48361;SDS011;34510;51.888;5.670;2023-03-01T01:40:43;614.13;;;163.40;;
48361;SDS011;34510;51.888;5.670;2023-03-01T01:45:45;674.10;;;161.83;;
48361;SDS011;34510;51.888;5.670;2023-03-01T01:50:53;668.67;;;164.45;;
48361;SDS011;34510;51.888;5.670;2023-03-01T01:56:00;673.42;;;161.45;;
48361;SDS011;34510;51.888;5.670;2023-03-01T02:01:03;675.40;;;162.38;;
48361;SDS011;34510;51.888;5.670;2023-03-01T02:06:07;673.92;;;164.90;;
48361;SDS011;34510;51.888;5.670;2023-03-01T02:11:15;671.22;;;163.57;;
48361;SDS011;34510;51.888;5.670;2023-03-01T02:16:18;667.67;;;158.63;;
48361;SDS011;34510;51.888;5.670;2023-03-01T02:21:31;671.83;;;160.88;;
48361;SDS011;34510;51.888;5.670;2023-03-01T02:26:41;672.63;;;155.80;;
48361;SDS011;34510;51.888;5.670;2023-03-01T02:31:47;676.60;;;170.40;;
48361;SDS011;34510;51.888;5.670;2023-03-01T02:36:52;678.55;;;159.25;;
48361;SDS011;34510;51.888;5.670;2023-03-01T02:41:57;678.22;;;171.80;;
48361;SDS011;34510;51.888;5.670;2023-03-01T02:47:01;677.42;;;163.65;;
48361;SDS011;34510;51.888;5.670;2023-03-01T02:57:32;680.67;;;160.57;;
48361;SDS011;34510;51.888;5.670;2023-03-01T03:02:35;684.88;;;167.98;;
48361;SDS011;34510;51.888;5.670;2023-03-01T03:07:47;675.33;;;153.70;;
48361;SDS011;34510;51.888;5.670;2023-03-01T03:12:54;666.60;;;147.48;;
48361;SDS011;34510;51.888;5.670;2023-03-01T03:17:58;672.83;;;152.00;;
48361;SDS011;34510;51.888;5.670;2023-03-01T03:23:00;684.25;;;152.95;;
48361;SDS011;34510;51.888;5.670;2023-03-01T03:28:03;683.63;;;165.85;;
48361;SDS011;34510;51.888;5.670;2023-03-01T03:33:11;674.20;;;154.02;;
48361;SDS011;34510;51.888;5.670;2023-03-01T03:38:15;678.42;;;153.45;;
48361;SDS011;34510;51.888;5.670;2023-03-01T03:43:19;677.33;;;157.45;;
48361;SDS011;34510;51.888;5.670;2023-03-01T03:48:23;681.05;;;163.75;;
48361;SDS011;34510;51.888;5.670;2023-03-01T03:53:26;678.85;;;157.25;;
48361;SDS011;34510;51.888;5.670;2023-03-01T03:58:30;675.30;;;155.00;;
48361;SDS011;34510;51.888;5.670;2023-03-01T04:03:32;675.08;;;155.10;;
48361;SDS011;34510;51.888;5.670;2023-03-01T04:08:36;672.05;;;154.25;;
48361;SDS011;34510;51.888;5.670;2023-03-01T04:13:38;546.40;;;154.70;;
48361;SDS011;34510;51.888;5.670;2023-03-01T04:18:40;528.70;;;148.17;;
48361;SDS011;34510;51.888;5.670;2023-03-01T04:23:42;591.37;;;155.07;;
48361;SDS011;34510;51.888;5.670;2023-03-01T04:28:44;537.43;;;159.03;;
48361;SDS011;34510;51.888;5.670;2023-03-01T04:33:48;555.07;;;157.53;;
48361;SDS011;34510;51.888;5.670;2023-03-01T04:38:54;560.25;;;181.73;;
48361;SDS011;34510;51.888;5.670;2023-03-01T04:43:57;617.00;;;170.37;;
48361;SDS011;34510;51.888;5.670;2023-03-01T04:49:02;615.30;;;144.43;;
48361;SDS011;34510;51.888;5.670;2023-03-01T04:54:04;585.53;;;177.70;;
48361;SDS011;34510;51.888;5.670;2023-03-01T04:59:10;579.77;;;148.93;;
48361;SDS011;34510;51.888;5.670;2023-03-01T05:04:14;659.10;;;190.43;;
48361;SDS011;34510;51.888;5.670;2023-03-01T05:09:16;604.13;;;198.73;;
48361;SDS011;34510;51.888;5.670;2023-03-01T05:14:18;587.20;;;155.07;;
48361;SDS011;34510;51.888;5.670;2023-03-01T05:19:19;601.77;;;146.87;;
48361;SDS011;34510;51.888;5.670;2023-03-01T05:24:24;594.57;;;222.07;;
48361;SDS011;34510;51.888;5.670;2023-03-01T05:29:29;610.83;;;180.37;;
48361;SDS011;34510;51.888;5.670;2023-03-01T05:34:34;622.10;;;195.37;;
48361;SDS011;34510;51.888;5.670;2023-03-01T05:39:37;641.93;;;164.33;;
48361;SDS011;34510;51.888;5.670;2023-03-01T05:44:39;595.30;;;188.50;;
48361;SDS011;34510;51.888;5.670;2023-03-01T05:49:41;610.47;;;155.87;;
48361;SDS011;34510;51.888;5.670;2023-03-01T05:54:43;604.77;;;141.80;;
48361;SDS011;34510;51.888;5.670;2023-03-01T05:59:45;641.37;;;150.13;;
48361;SDS011;34510;51.888;5.670;2023-03-01T06:04:47;608.77;;;143.90;;
48361;SDS011;34510;51.888;5.670;2023-03-01T06:09:49;594.97;;;140.93;;
48361;SDS011;34510;51.888;5.670;2023-03-01T06:14:51;525.03;;;134.17;;
48361;SDS011;34510;51.888;5.670;2023-03-01T06:19:53;611.47;;;157.63;;
48361;SDS011;34510;51.888;5.670;2023-03-01T06:24:54;629.00;;;146.63;;
48361;SDS011;34510;51.888;5.670;2023-03-01T06:29:56;664.00;;;159.73;;
48361;SDS011;34510;51.888;5.670;2023-03-01T06:34:58;677.03;;;177.00;;
48361;SDS011;34510;51.888;5.670;2023-03-01T06:40:01;677.20;;;175.13;;
48361;SDS011;34510;51.888;5.670;2023-03-01T06:45:09;671.60;;;168.37;;
48361;SDS011;34510;51.888;5.670;2023-03-01T06:50:12;671.53;;;167.20;;
48361;SDS011;34510;51.888;5.670;2023-03-01T06:55:15;671.77;;;166.67;;
48361;SDS011;34510;51.888;5.670;2023-03-01T07:00:17;668.20;;;159.57;;
48361;SDS011;34510;51.888;5.670;2023-03-01T07:05:20;670.37;;;166.63;;
48361;SDS011;34510;51.888;5.670;2023-03-01T07:10:22;675.17;;;162.37;;
48361;SDS011;34510;51.888;5.670;2023-03-01T07:15:25;667.87;;;161.40;;
48361;SDS011;34510;51.888;5.670;2023-03-01T07:20:28;668.23;;;161.37;;
48361;SDS011;34510;51.888;5.670;2023-03-01T07:25:30;669.93;;;165.07;;
48361;SDS011;34510;51.888;5.670;2023-03-01T07:30:32;675.30;;;168.60;;
48361;SDS011;34510;51.888;5.670;2023-03-01T07:35:34;672.20;;;167.33;;
48361;SDS011;34510;51.888;5.670;2023-03-01T07:40:35;676.70;;;170.63;;
48361;SDS011;34510;51.888;5.670;2023-03-01T07:45:37;678.20;;;182.17;;
48361;SDS011;34510;51.888;5.670;2023-03-01T07:50:39;674.77;;;182.73;;
48361;SDS011;34510;51.888;5.670;2023-03-01T07:55:41;680.57;;;198.73;;
48361;SDS011;34510;51.888;5.670;2023-03-01T08:00:43;707.17;;;221.57;;
48361;SDS011;34510;51.888;5.670;2023-03-01T08:05:45;694.80;;;194.40;;
48361;SDS011;34510;51.888;5.670;2023-03-01T08:10:47;699.73;;;234.23;;
48361;SDS011;34510;51.888;5.670;2023-03-01T08:15:49;701.03;;;240.83;;
48361;SDS011;34510;51.888;5.670;2023-03-01T08:20:51;690.30;;;230.63;;
48361;SDS011;34510;51.888;5.670;2023-03-01T08:25:53;701.73;;;247.17;;
48361;SDS011;34510;51.888;5.670;2023-03-01T08:30:55;706.13;;;253.27;;
48361;SDS011;34510;51.888;5.670;2023-03-01T08:36:03;697.70;;;240.70;;
48361;SDS011;34510;51.888;5.670;2023-03-01T08:41:08;695.30;;;219.18;;
48361;SDS011;34510;51.888;5.670;2023-03-01T08:46:10;696.53;;;227.40;;
48361;SDS011;34510;51.888;5.670;2023-03-01T08:51:14;703.63;;;230.07;;
48361;SDS011;34510;51.888;5.670;2023-03-01T08:56:18;695.00;;;228.25;;
48361;SDS011;34510;51.888;5.670;2023-03-01T09:01:20;712.33;;;274.77;;
48361;SDS011;34510;51.888;5.670;2023-03-01T09:06:22;716.37;;;282.50;;
48361;SDS011;34510;51.888;5.670;2023-03-01T09:11:25;711.63;;;256.10;;
48361;SDS011;34510;51.888;5.670;2023-03-01T09:16:27;707.27;;;275.20;;
48361;SDS011;34510;51.888;5.670;2023-03-01T09:21:31;715.20;;;305.87;;
48361;SDS011;34510;51.888;5.670;2023-03-01T09:26:41;716.30;;;321.37;;
48361;SDS011;34510;51.888;5.670;2023-03-01T09:31:43;709.00;;;272.23;;
48361;SDS011;34510;51.888;5.670;2023-03-01T09:36:46;710.38;;;276.23;;
48361;SDS011;34510;51.888;5.670;2023-03-01T09:41:57;714.23;;;300.27;;
48361;SDS011;34510;51.888;5.670;2023-03-01T09:47:04;717.90;;;316.53;;
48361;SDS011;34510;51.888;5.670;2023-03-01T09:52:19;721.80;;;324.10;;
48361;SDS011;34510;51.888;5.670;2023-03-01T10:08:27;706.65;;;284.95;;
48361;SDS011;34510;51.888;5.670;2023-03-01T10:18:58;713.10;;;303.00;;
48361;SDS011;34510;51.888;5.670;2023-03-01T10:24:37;710.65;;;294.90;;
48361;SDS011;34510;51.888;5.670;2023-03-01T10:29:35;712.70;;;304.63;;
48361;SDS011;34510;51.888;5.670;2023-03-01T10:34:47;715.50;;;311.40;;
48361;SDS011;34510;51.888;5.670;2023-03-01T10:45:30;720.70;;;325.95;;
48361;SDS011;34510;51.888;5.670;2023-03-01T10:50:41;716.58;;;325.73;;
48361;SDS011;34510;51.888;5.670;2023-03-01T10:55:45;718.80;;;326.65;;
48361;SDS011;34510;51.888;5.670;2023-03-01T11:00:48;720.58;;;324.27;;
48361;SDS011;34510;51.888;5.670;2023-03-01T11:06:19;724.80;;;363.67;;
48361;SDS011;34510;51.888;5.670;2023-03-01T11:11:30;717.90;;;321.90;;
48361;SDS011;34510;51.888;5.670;2023-03-01T11:16:35;720.15;;;323.73;;
48361;SDS011;34510;51.888;5.670;2023-03-01T11:27:16;717.65;;;327.83;;
48361;SDS011;34510;51.888;5.670;2023-03-01T11:32:25;716.58;;;331.33;;
48361;SDS011;34510;51.888;5.670;2023-03-01T11:37:32;724.70;;;338.65;;
48361;SDS011;34510;51.888;5.670;2023-03-01T12:03:52;721.67;;;391.83;;
48361;SDS011;34510;51.888;5.670;2023-03-01T12:14:52;717.90;;;368.83;;
48361;SDS011;34510;51.888;5.670;2023-03-01T12:25:16;722.85;;;358.48;;
48361;SDS011;34510;51.888;5.670;2023-03-01T12:51:50;722.60;;;386.67;;
48361;SDS011;34510;51.888;5.670;2023-03-01T12:57:18;722.27;;;390.33;;
48361;SDS011;34510;51.888;5.670;2023-03-01T13:02:39;733.45;;;408.20;;
48361;SDS011;34510;51.888;5.670;2023-03-01T13:13:19;744.53;;;443.67;;
48361;SDS011;34510;51.888;5.670;2023-03-01T13:18:29;743.40;;;438.67;;
48361;SDS011;34510;51.888;5.670;2023-03-01T13:23:34;742.27;;;432.07;;
48361;SDS011;34510;51.888;5.670;2023-03-01T13:43:56;731.37;;;430.77;;
48361;SDS011;34510;51.888;5.670;2023-03-01T13:48:59;732.43;;;435.77;;
48361;SDS011;34510;51.888;5.670;2023-03-01T13:54:02;725.87;;;415.20;;
48361;SDS011;34510;51.888;5.670;2023-03-01T13:59:04;729.27;;;402.53;;
48361;SDS011;34510;51.888;5.670;2023-03-01T14:04:35;733.03;;;429.53;;
48361;SDS011;34510;51.888;5.670;2023-03-01T14:09:40;723.70;;;392.90;;
48361;SDS011;34510;51.888;5.670;2023-03-01T14:14:54;729.93;;;378.03;;
48361;SDS011;34510;51.888;5.670;2023-03-01T14:20:07;730.60;;;378.48;;
48361;SDS011;34510;51.888;5.670;2023-03-01T14:25:20;725.50;;;374.98;;
48361;SDS011;34510;51.888;5.670;2023-03-01T14:30:24;723.10;;;367.13;;
48361;SDS011;34510;51.888;5.670;2023-03-01T14:35:33;727.83;;;376.27;;
48361;SDS011;34510;51.888;5.670;2023-03-01T14:40:37;725.83;;;383.90;;
48361;SDS011;34510;51.888;5.670;2023-03-01T14:45:39;722.00;;;395.23;;
48361;SDS011;34510;51.888;5.670;2023-03-01T14:50:41;724.20;;;408.40;;
48361;SDS011;34510;51.888;5.670;2023-03-01T14:55:50;723.17;;;391.07;;
48361;SDS011;34510;51.888;5.670;2023-03-01T15:00:55;722.17;;;392.87;;
48361;SDS011;34510;51.888;5.670;2023-03-01T15:06:00;721.80;;;392.40;;
48361;SDS011;34510;51.888;5.670;2023-03-01T15:21:26;817.13;;;399.30;;
48361;SDS011;34510;51.888;5.670;2023-03-01T15:26:37;757.67;;;364.80;;
48361;SDS011;34510;51.888;5.670;2023-03-01T15:31:42;725.70;;;350.15;;
48361;SDS011;34510;51.888;5.670;2023-03-01T15:36:45;714.63;;;340.08;;
48361;SDS011;34510;51.888;5.670;2023-03-01T15:41:51;717.70;;;339.67;;
48361;SDS011;34510;51.888;5.670;2023-03-01T15:46:53;709.20;;;338.67;;
48361;SDS011;34510;51.888;5.670;2023-03-01T15:51:55;709.60;;;327.55;;
48361;SDS011;34510;51.888;5.670;2023-03-01T15:56:57;711.25;;;325.83;;
48361;SDS011;34510;51.888;5.670;2023-03-01T16:01:59;726.77;;;387.03;;
48361;SDS011;34510;51.888;5.670;2023-03-01T16:07:01;709.87;;;346.67;;
48361;SDS011;34510;51.888;5.670;2023-03-01T16:12:03;720.17;;;376.13;;
48361;SDS011;34510;51.888;5.670;2023-03-01T16:17:05;705.43;;;333.20;;
48361;SDS011;34510;51.888;5.670;2023-03-01T16:22:09;717.30;;;341.03;;
48361;SDS011;34510;51.888;5.670;2023-03-01T16:27:12;734.13;;;385.80;;
48361;SDS011;34510;51.888;5.670;2023-03-01T16:32:15;719.60;;;372.73;;
48361;SDS011;34510;51.888;5.670;2023-03-01T16:37:17;716.07;;;383.53;;
48361;SDS011;34510;51.888;5.670;2023-03-01T16:42:20;714.70;;;359.17;;
48361;SDS011;34510;51.888;5.670;2023-03-01T16:47:22;710.00;;;341.37;;
48361;SDS011;34510;51.888;5.670;2023-03-01T16:52:24;699.70;;;329.27;;
48361;SDS011;34510;51.888;5.670;2023-03-01T16:57:26;716.47;;;361.43;;
48361;SDS011;34510;51.888;5.670;2023-03-01T17:02:28;707.83;;;344.63;;
48361;SDS011;34510;51.888;5.670;2023-03-01T17:07:30;707.17;;;351.83;;
48361;SDS011;34510;51.888;5.670;2023-03-01T17:12:37;704.47;;;340.83;;
48361;SDS011;34510;51.888;5.670;2023-03-01T17:17:40;700.27;;;312.70;;
48361;SDS011;34510;51.888;5.670;2023-03-01T17:22:41;696.93;;;316.63;;
48361;SDS011;34510;51.888;5.670;2023-03-01T17:27:43;700.73;;;318.87;;
48361;SDS011;34510;51.888;5.670;2023-03-01T17:32:46;706.87;;;334.13;;
48361;SDS011;34510;51.888;5.670;2023-03-01T17:37:48;706.17;;;325.67;;
48361;SDS011;34510;51.888;5.670;2023-03-01T17:42:50;714.67;;;337.53;;
48361;SDS011;34510;51.888;5.670;2023-03-01T17:47:52;701.20;;;312.50;;
48361;SDS011;34510;51.888;5.670;2023-03-01T17:52:53;704.50;;;314.23;;
48361;SDS011;34510;51.888;5.670;2023-03-01T17:57:56;703.57;;;311.67;;
48361;SDS011;34510;51.888;5.670;2023-03-01T18:02:58;697.40;;;301.80;;
48361;SDS011;34510;51.888;5.670;2023-03-01T18:08:00;697.17;;;296.90;;
48361;SDS011;34510;51.888;5.670;2023-03-01T18:13:03;696.53;;;290.70;;
48361;SDS011;34510;51.888;5.670;2023-03-01T18:18:05;694.90;;;295.47;;
48361;SDS011;34510;51.888;5.670;2023-03-01T18:23:07;687.08;;;249.80;;
48361;SDS011;34510;51.888;5.670;2023-03-01T18:28:09;691.83;;;253.65;;
48361;SDS011;34510;51.888;5.670;2023-03-01T18:33:11;701.27;;;298.23;;
48361;SDS011;34510;51.888;5.670;2023-03-01T18:38:13;695.05;;;252.95;;
48361;SDS011;34510;51.888;5.670;2023-03-01T18:43:15;695.35;;;254.52;;
48361;SDS011;34510;51.888;5.670;2023-03-01T18:48:16;694.33;;;256.77;;
48361;SDS011;34510;51.888;5.670;2023-03-01T18:53:18;692.95;;;251.35;;
48361;SDS011;34510;51.888;5.670;2023-03-01T18:58:20;687.55;;;241.35;;
48361;SDS011;34510;51.888;5.670;2023-03-01T19:03:22;690.20;;;243.32;;
48361;SDS011;34510;51.888;5.670;2023-03-01T19:08:24;688.93;;;244.87;;
48361;SDS011;34510;51.888;5.670;2023-03-01T19:13:27;692.20;;;246.97;;
48361;SDS011;34510;51.888;5.670;2023-03-01T19:18:29;689.53;;;237.60;;
48361;SDS011;34510;51.888;5.670;2023-03-01T19:23:31;693.37;;;276.97;;
48361;SDS011;34510;51.888;5.670;2023-03-01T19:33:41;686.03;;;247.30;;
48361;SDS011;34510;51.888;5.670;2023-03-01T19:38:43;692.80;;;246.93;;
48361;SDS011;34510;51.888;5.670;2023-03-01T19:43:45;689.83;;;236.30;;
48361;SDS011;34510;51.888;5.670;2023-03-01T19:48:47;693.72;;;226.32;;
48361;SDS011;34510;51.888;5.670;2023-03-01T19:53:50;696.47;;;229.75;;
48361;SDS011;34510;51.888;5.670;2023-03-01T19:58:55;690.13;;;220.10;;
48361;SDS011;34510;51.888;5.670;2023-03-01T20:04:01;694.45;;;227.30;;
48361;SDS011;34510;51.888;5.670;2023-03-01T20:09:05;688.37;;;249.63;;
48361;SDS011;34510;51.888;5.670;2023-03-01T20:14:21;683.80;;;221.80;;
48361;SDS011;34510;51.888;5.670;2023-03-01T20:19:25;696.47;;;223.13;;
48361;SDS011;34510;51.888;5.670;2023-03-01T20:24:31;691.22;;;223.13;;
48361;SDS011;34510;51.888;5.670;2023-03-01T20:29:33;687.63;;;212.48;;
48361;SDS011;34510;51.888;5.670;2023-03-01T20:34:35;682.13;;;232.57;;
48361;SDS011;34510;51.888;5.670;2023-03-01T20:39:37;688.63;;;209.75;;
48361;SDS011;34510;51.888;5.670;2023-03-01T20:44:40;685.95;;;214.40;;
48361;SDS011;34510;51.888;5.670;2023-03-01T20:49:44;690.95;;;223.30;;
48361;SDS011;34510;51.888;5.670;2023-03-01T20:54:46;683.13;;;207.80;;
48361;SDS011;34510;51.888;5.670;2023-03-01T20:59:49;687.00;;;207.13;;
48361;SDS011;34510;51.888;5.670;2023-03-01T21:04:51;684.55;;;200.25;;
48361;SDS011;34510;51.888;5.670;2023-03-01T21:09:53;683.20;;;200.73;;
48361;SDS011;34510;51.888;5.670;2023-03-01T21:14:55;685.95;;;201.85;;
48361;SDS011;34510;51.888;5.670;2023-03-01T21:19:57;683.30;;;195.80;;
48361;SDS011;34510;51.888;5.670;2023-03-01T21:24:59;680.00;;;197.05;;
48361;SDS011;34510;51.888;5.670;2023-03-01T21:30:01;686.07;;;228.97;;
48361;SDS011;34510;51.888;5.670;2023-03-01T21:35:03;680.97;;;229.30;;
48361;SDS011;34510;51.888;5.670;2023-03-01T21:40:05;676.97;;;210.77;;
48361;SDS011;34510;51.888;5.670;2023-03-01T21:45:09;675.43;;;209.77;;
48361;SDS011;34510;51.888;5.670;2023-03-01T21:50:11;676.50;;;211.47;;
48361;SDS011;34510;51.888;5.670;2023-03-01T21:55:13;674.90;;;220.47;;
48361;SDS011;34510;51.888;5.670;2023-03-01T22:00:16;690.20;;;250.27;;
48361;SDS011;34510;51.888;5.670;2023-03-01T22:05:19;690.83;;;239.07;;
48361;SDS011;34510;51.888;5.670;2023-03-01T22:10:20;683.37;;;235.53;;
48361;SDS011;34510;51.888;5.670;2023-03-01T22:15:27;677.00;;;225.37;;
48361;SDS011;34510;51.888;5.670;2023-03-01T22:20:29;692.93;;;244.33;;
48361;SDS011;34510;51.888;5.670;2023-03-01T22:25:31;679.63;;;232.03;;
48361;SDS011;34510;51.888;5.670;2023-03-01T22:30:33;683.33;;;234.83;;
48361;SDS011;34510;51.888;5.670;2023-03-01T22:35:39;680.50;;;223.67;;
48361;SDS011;34510;51.888;5.670;2023-03-01T22:40:44;680.37;;;237.43;;
48361;SDS011;34510;51.888;5.670;2023-03-01T22:45:46;684.63;;;243.27;;
48361;SDS011;34510;51.888;5.670;2023-03-01T22:50:48;683.17;;;233.67;;
48361;SDS011;34510;51.888;5.670;2023-03-01T22:55:50;678.33;;;228.50;;
48361;SDS011;34510;51.888;5.670;2023-03-01T23:00:52;677.70;;;225.30;;
48361;SDS011;34510;51.888;5.670;2023-03-01T23:05:54;680.03;;;226.97;;
48361;SDS011;34510;51.888;5.670;2023-03-01T23:10:56;677.47;;;210.80;;
48361;SDS011;34510;51.888;5.670;2023-03-01T23:15:58;678.00;;;224.27;;
48361;SDS011;34510;51.888;5.670;2023-03-01T23:21:05;675.67;;;206.93;;
48361;SDS011;34510;51.888;5.670;2023-03-01T23:26:18;673.60;;;205.67;;
48361;SDS011;34510;51.888;5.670;2023-03-01T23:31:22;678.57;;;216.43;;
48361;SDS011;34510;51.888;5.670;2023-03-01T23:36:31;672.33;;;205.80;;
48361;SDS011;34510;51.888;5.670;2023-03-01T23:41:34;673.27;;;194.03;;
48361;SDS011;34510;51.888;5.670;2023-03-01T23:46:36;679.03;;;189.40;;
48361;SDS011;34510;51.888;5.670;2023-03-01T23:51:39;678.87;;;211.47;;
48361;SDS011;34510;51.888;5.670;2023-03-01T23:56:50;681.77;;;199.10;;
